BCS419 LIRN-LIPZ
Flight info
| Callsign | BCS419 |
|---|---|
| Flight time | 0h 53m |
| Altitude | 30000 |
| Route | ALAXI7J/24 ALAXI DCT INSOX DCT AMLON DCT ARDAM Z456 OTGIG |
| Aircraft | A306/H-SDE3FGHIRWY/LB1 |
Departure
| Time | 2026-05-04 15:52 |
|---|---|
| Airport | Naples International Airport (LIRN) |
Arrival
| Time | 2026-05-04 16:46 |
|---|---|
| Airport | Venice Marco Polo Airport (LIPZ) |
| Time | Latitude | Longitude | Altitude | Speed | Heading |
|---|---|---|---|---|---|
| 2026-05-04 15:21 | 40.87707 | 14.27939 | 306 ft | 0 kts | 172° |
| 2026-05-04 15:39 | 40.87731 | 14.27935 | 308 ft | 3 kts | 172° |
| 2026-05-04 15:40 | 40.87751 | 14.27932 | 306 ft | 3 kts | 172° |
| 2026-05-04 15:40 | 40.87771 | 14.27928 | 305 ft | 3 kts | 170° |
| 2026-05-04 15:40 | 40.87791 | 14.27923 | 306 ft | 3 kts | 166° |
| 2026-05-04 15:40 | 40.87810 | 14.27915 | 305 ft | 3 kts | 152° |
| 2026-05-04 15:41 | 40.87823 | 14.27902 | 305 ft | 3 kts | 104° |
| 2026-05-04 15:41 | 40.87825 | 14.27894 | 305 ft | 1 kts | 65° |
| 2026-05-04 15:41 | 40.87832 | 14.27910 | 304 ft | 3 kts | 55° |
| 2026-05-04 15:41 | 40.87838 | 14.27921 | 304 ft | 1 kts | 54° |
| 2026-05-04 15:44 | 40.87860 | 14.27959 | 305 ft | 14 kts | 51° |
| 2026-05-04 15:44 | 40.87921 | 14.28058 | 304 ft | 14 kts | 51° |
| 2026-05-04 15:44 | 40.88001 | 14.28129 | 299 ft | 13 kts | 31° |
| 2026-05-04 15:45 | 40.88058 | 14.28219 | 299 ft | 13 kts | 66° |
| 2026-05-04 15:45 | 40.88064 | 14.28336 | 296 ft | 13 kts | 92° |
| 2026-05-04 15:45 | 40.88053 | 14.28422 | 294 ft | 9 kts | 97° |
| 2026-05-04 15:45 | 40.88046 | 14.28501 | 294 ft | 9 kts | 97° |
| 2026-05-04 15:46 | 40.88057 | 14.28625 | 295 ft | 19 kts | 57° |
| 2026-05-04 15:46 | 40.88150 | 14.28788 | 285 ft | 23 kts | 52° |
| 2026-05-04 15:46 | 40.88249 | 14.28958 | 281 ft | 23 kts | 52° |
| 2026-05-04 15:46 | 40.88348 | 14.29130 | 276 ft | 23 kts | 52° |
| 2026-05-04 15:47 | 40.88447 | 14.29302 | 272 ft | 24 kts | 52° |
| 2026-05-04 15:47 | 40.88548 | 14.29476 | 267 ft | 24 kts | 52° |
| 2026-05-04 15:47 | 40.88648 | 14.29649 | 262 ft | 24 kts | 53° |
| 2026-05-04 15:47 | 40.88752 | 14.29827 | 257 ft | 25 kts | 53° |
| 2026-05-04 15:48 | 40.88857 | 14.30011 | 251 ft | 25 kts | 52° |
| 2026-05-04 15:48 | 40.88938 | 14.30151 | 246 ft | 6 kts | 52° |
| 2026-05-04 15:48 | 40.88941 | 14.30158 | 245 ft | 0 kts | 52° |
| 2026-05-04 15:49 | 40.88942 | 14.30160 | 245 ft | 2 kts | 52° |
| 2026-05-04 15:49 | 40.88977 | 14.30177 | 244 ft | 8 kts | 355° |
| 2026-05-04 15:50 | 40.89043 | 14.30139 | 243 ft | 12 kts | 335° |
| 2026-05-04 15:50 | 40.89122 | 14.30193 | 240 ft | 17 kts | 56° |
| 2026-05-04 15:50 | 40.89180 | 14.30346 | 239 ft | 19 kts | 69° |
| 2026-05-04 15:50 | 40.89217 | 14.30389 | 234 ft | 2 kts | 325° |
| 2026-05-04 15:51 | 40.89217 | 14.30377 | 234 ft | 3 kts | 269° |
| 2026-05-04 15:51 | 40.89162 | 14.30259 | 238 ft | 39 kts | 238° |
| 2026-05-04 15:51 | 40.88901 | 14.29708 | 256 ft | 101 kts | 238° |
| 2026-05-04 15:51 | 40.88434 | 14.28715 | 282 ft | 153 kts | 238° |
| 2026-05-04 15:52 | 40.87803 | 14.27374 | 598 ft | 180 kts | 242° |
| 2026-05-04 15:52 | 40.87568 | 14.25812 | 1443 ft | 179 kts | 273° |
| 2026-05-04 15:52 | 40.87903 | 14.24228 | 2169 ft | 182 kts | 297° |
| 2026-05-04 15:52 | 40.88552 | 14.22730 | 2777 ft | 197 kts | 302° |
| 2026-05-04 15:53 | 40.89042 | 14.21683 | 3205 ft | 202 kts | 301° |
| 2026-05-04 15:53 | 40.89798 | 14.20027 | 3558 ft | 217 kts | 300° |
| 2026-05-04 15:53 | 40.90588 | 14.18238 | 3855 ft | 234 kts | 298° |
| 2026-05-04 15:53 | 40.91413 | 14.16320 | 4327 ft | 243 kts | 298° |
| 2026-05-04 15:54 | 40.92247 | 14.14364 | 4982 ft | 243 kts | 297° |
| 2026-05-04 15:54 | 40.93240 | 14.12631 | 5758 ft | 236 kts | 322° |
| 2026-05-04 15:54 | 40.94772 | 14.11830 | 6201 ft | 246 kts | 350° |
| 2026-05-04 15:54 | 40.96515 | 14.11595 | 6392 ft | 258 kts | 355° |
| 2026-05-04 15:55 | 40.98318 | 14.11149 | 6504 ft | 270 kts | 340° |
| 2026-05-04 15:55 | 40.99999 | 14.09953 | 6761 ft | 280 kts | 325° |
| 2026-05-04 15:55 | 41.01595 | 14.08447 | 7574 ft | 281 kts | 323° |
| 2026-05-04 15:55 | 41.03159 | 14.06903 | 8516 ft | 281 kts | 321° |
| 2026-05-04 15:56 | 41.04722 | 14.05342 | 9419 ft | 282 kts | 321° |
| 2026-05-04 15:56 | 41.06268 | 14.03787 | 10219 ft | 285 kts | 320° |
| 2026-05-04 15:56 | 41.07884 | 14.02153 | 10651 ft | 302 kts | 321° |
| 2026-05-04 15:56 | 41.09605 | 14.00408 | 10916 ft | 321 kts | 321° |
| 2026-05-04 15:57 | 41.11428 | 13.98558 | 11194 ft | 338 kts | 321° |
| 2026-05-04 15:57 | 41.13344 | 13.96611 | 11431 ft | 355 kts | 321° |
| 2026-05-04 15:57 | 41.15353 | 13.94569 | 11647 ft | 371 kts | 321° |
| 2026-05-04 15:57 | 41.17435 | 13.92454 | 11991 ft | 382 kts | 321° |
| 2026-05-04 15:58 | 41.19555 | 13.90299 | 12543 ft | 386 kts | 321° |
| 2026-05-04 15:58 | 41.21693 | 13.88121 | 13124 ft | 389 kts | 321° |
| 2026-05-04 15:58 | 41.23849 | 13.85923 | 13704 ft | 392 kts | 321° |
| 2026-05-04 15:58 | 41.26009 | 13.83719 | 14444 ft | 389 kts | 320° |
| 2026-05-04 15:59 | 41.28147 | 13.81535 | 15086 ft | 388 kts | 320° |
| 2026-05-04 15:59 | 41.30327 | 13.79386 | 15606 ft | 393 kts | 324° |
| 2026-05-04 15:59 | 41.32767 | 13.77694 | 16126 ft | 399 kts | 336° |
| 2026-05-04 15:59 | 41.35408 | 13.76523 | 16698 ft | 403 kts | 341° |
| 2026-05-04 16:00 | 41.38134 | 13.75577 | 17232 ft | 406 kts | 344° |
| 2026-05-04 16:00 | 41.40909 | 13.74764 | 17737 ft | 410 kts | 346° |
| 2026-05-04 16:00 | 41.43711 | 13.74009 | 18252 ft | 412 kts | 346° |
| 2026-05-04 16:00 | 41.46537 | 13.73261 | 18700 ft | 415 kts | 346° |
| 2026-05-04 16:01 | 41.49374 | 13.72499 | 19030 ft | 417 kts | 346° |
| 2026-05-04 16:01 | 41.52225 | 13.71717 | 19189 ft | 419 kts | 346° |
| 2026-05-04 16:01 | 41.55089 | 13.70916 | 19593 ft | 422 kts | 346° |
| 2026-05-04 16:01 | 41.57976 | 13.70099 | 19991 ft | 424 kts | 345° |
| 2026-05-04 16:02 | 41.60869 | 13.69273 | 20359 ft | 428 kts | 345° |
| 2026-05-04 16:02 | 41.63789 | 13.68437 | 20749 ft | 430 kts | 346° |
| 2026-05-04 16:02 | 41.69623 | 13.66764 | 21512 ft | 434 kts | 345° |
| 2026-05-04 16:03 | 41.72582 | 13.65913 | 21894 ft | 436 kts | 345° |
| 2026-05-04 16:03 | 41.75558 | 13.65059 | 22280 ft | 438 kts | 345° |
| 2026-05-04 16:03 | 41.78546 | 13.64200 | 22666 ft | 440 kts | 345° |
| 2026-05-04 16:03 | 41.81547 | 13.63339 | 23008 ft | 443 kts | 345° |
| 2026-05-04 16:04 | 41.84572 | 13.62469 | 23327 ft | 446 kts | 345° |
| 2026-05-04 16:04 | 41.90659 | 13.60711 | 23942 ft | 449 kts | 345° |
| 2026-05-04 16:04 | 41.93718 | 13.59827 | 24250 ft | 450 kts | 345° |
| 2026-05-04 16:05 | 41.96784 | 13.58941 | 24568 ft | 451 kts | 345° |
| 2026-05-04 16:05 | 41.99848 | 13.58056 | 24872 ft | 451 kts | 345° |
| 2026-05-04 16:05 | 42.05998 | 13.56277 | 25450 ft | 453 kts | 344° |
| 2026-05-04 16:06 | 42.09078 | 13.55384 | 25735 ft | 453 kts | 344° |
| 2026-05-04 16:06 | 42.17309 | 13.52996 | 26482 ft | 455 kts | 344° |
| 2026-05-04 16:07 | 42.21454 | 13.51787 | 26816 ft | 456 kts | 344° |
| 2026-05-04 16:07 | 42.30868 | 13.49034 | 27422 ft | 461 kts | 343° |
| 2026-05-04 16:08 | 42.33983 | 13.48123 | 27897 ft | 457 kts | 343° |
| 2026-05-04 16:08 | 42.43192 | 13.45438 | 29007 ft | 450 kts | 343° |
| 2026-05-04 16:09 | 42.49335 | 13.43631 | 29426 ft | 454 kts | 343° |
| 2026-05-04 16:09 | 42.55492 | 13.41837 | 30063 ft | 451 kts | 343° |
| 2026-05-04 16:10 | 42.61549 | 13.40063 | 30109 ft | 438 kts | 343° |
| 2026-05-04 16:11 | 42.73482 | 13.36498 | 30101 ft | 442 kts | 344° |
| 2026-05-04 16:12 | 42.91549 | 13.31127 | 30098 ft | 446 kts | 344° |
| 2026-05-04 16:13 | 43.03714 | 13.27493 | 30096 ft | 447 kts | 345° |
| 2026-05-04 16:14 | 43.15967 | 13.23813 | 30089 ft | 457 kts | 345° |
| 2026-05-04 16:16 | 43.31514 | 13.19132 | 30090 ft | 459 kts | 345° |
| 2026-05-04 16:17 | 43.47137 | 13.14402 | 30077 ft | 460 kts | 346° |
| 2026-05-04 16:18 | 43.59689 | 13.10580 | 30076 ft | 463 kts | 345° |
| 2026-05-04 16:19 | 43.75424 | 13.05767 | 30071 ft | 464 kts | 345° |
| 2026-05-04 16:20 | 43.91187 | 13.00920 | 30067 ft | 465 kts | 345° |
| 2026-05-04 16:22 | 44.07010 | 12.96027 | 30069 ft | 463 kts | 345° |
| 2026-05-04 16:23 | 44.25865 | 12.90161 | 30014 ft | 463 kts | 345° |
| 2026-05-04 16:24 | 44.37723 | 12.84618 | 27369 ft | 443 kts | 330° |
| 2026-05-04 16:25 | 44.43050 | 12.80442 | 26175 ft | 436 kts | 328° |
| 2026-05-04 16:26 | 44.53367 | 12.72030 | 23836 ft | 423 kts | 328° |
| 2026-05-04 16:26 | 44.60938 | 12.65900 | 22011 ft | 413 kts | 328° |
| 2026-05-04 16:27 | 44.65847 | 12.61926 | 20894 ft | 407 kts | 328° |
| 2026-05-04 16:28 | 44.73165 | 12.55987 | 19085 ft | 402 kts | 327° |
| 2026-05-04 16:28 | 44.79839 | 12.49187 | 17222 ft | 388 kts | 304° |
| 2026-05-04 16:29 | 44.84630 | 12.36015 | 14983 ft | 372 kts | 291° |
| 2026-05-04 16:30 | 44.87710 | 12.26036 | 13233 ft | 367 kts | 291° |
| 2026-05-04 16:31 | 44.89779 | 12.19520 | 12109 ft | 361 kts | 292° |
| 2026-05-04 16:31 | 44.92692 | 12.10193 | 10925 ft | 320 kts | 291° |
| 2026-05-04 16:32 | 44.95131 | 12.02279 | 10621 ft | 276 kts | 291° |
| 2026-05-04 16:33 | 44.96607 | 11.97466 | 10376 ft | 259 kts | 291° |
| 2026-05-04 16:33 | 44.98040 | 11.92782 | 10082 ft | 262 kts | 291° |
| 2026-05-04 16:34 | 44.99461 | 11.88138 | 9340 ft | 258 kts | 291° |
| 2026-05-04 16:34 | 45.00396 | 11.85974 | 8976 ft | 258 kts | 306° |
| 2026-05-04 16:35 | 45.03941 | 11.80623 | 8371 ft | 242 kts | 324° |
| 2026-05-04 16:35 | 45.08565 | 11.81805 | 7663 ft | 246 kts | 41° |
| 2026-05-04 16:36 | 45.09835 | 11.83417 | 7439 ft | 245 kts | 43° |
| 2026-05-04 16:36 | 45.12353 | 11.86652 | 6979 ft | 243 kts | 43° |
| 2026-05-04 16:37 | 45.14438 | 11.89298 | 6611 ft | 241 kts | 42° |
| 2026-05-04 16:37 | 45.15688 | 11.90876 | 6373 ft | 240 kts | 42° |
| 2026-05-04 16:37 | 45.18581 | 11.94526 | 5852 ft | 238 kts | 42° |
| 2026-05-04 16:38 | 45.20657 | 11.97139 | 5483 ft | 237 kts | 42° |
| 2026-05-04 16:39 | 45.24343 | 12.01745 | 4823 ft | 235 kts | 41° |
| 2026-05-04 16:39 | 45.26694 | 12.04698 | 4398 ft | 222 kts | 41° |
| 2026-05-04 16:40 | 45.29017 | 12.07618 | 3802 ft | 224 kts | 41° |
| 2026-05-04 16:40 | 45.31309 | 12.10544 | 3313 ft | 219 kts | 42° |
| 2026-05-04 16:41 | 45.33535 | 12.13399 | 3089 ft | 216 kts | 42° |
| 2026-05-04 16:41 | 45.36944 | 12.17773 | 3064 ft | 217 kts | 41° |
| 2026-05-04 16:42 | 45.40164 | 12.21897 | 2460 ft | 205 kts | 43° |
| 2026-05-04 16:43 | 45.42170 | 12.24470 | 1928 ft | 183 kts | 43° |
| 2026-05-04 16:43 | 45.43913 | 12.26704 | 1467 ft | 155 kts | 44° |
| 2026-05-04 16:43 | 45.44700 | 12.27720 | 1273 ft | 151 kts | 46° |
| 2026-05-04 16:44 | 45.47762 | 12.31647 | 447 ft | 146 kts | 44° |
| 2026-05-04 16:45 | 45.49273 | 12.33587 | 72 ft | 146 kts | 44° |
| 2026-05-04 16:46 | 45.50580 | 12.35273 | 19 ft | 24 kts | 39° |
| 2026-05-04 16:46 | 45.50915 | 12.35457 | 25 ft | 26 kts | 4° |
| 2026-05-04 16:47 | 45.50889 | 12.35115 | 22 ft | 23 kts | 222° |
| 2026-05-04 16:47 | 45.50673 | 12.34841 | 24 ft | 11 kts | 222° |
| 2026-05-04 16:48 | 45.50664 | 12.34690 | 24 ft | 10 kts | 311° |
| 2026-05-04 16:48 | 45.50725 | 12.34610 | 24 ft | 10 kts | 330° |
| 2026-05-04 16:49 | 45.50769 | 12.34608 | 23 ft | 3 kts | 38° |
| 2026-05-04 16:49 | 45.50777 | 12.34634 | 26 ft | 2 kts | 77° |
| 2026-05-04 16:50 | 45.50780 | 12.34674 | 25 ft | 1 kts | 85° |
| 2026-05-04 16:50 | 45.50780 | 12.34690 | 25 ft | 0 kts | 87° |